Back

Comments 12

  • K.I.T.T Scanner almost 2 years ago

    Sketch not found and text in post errors

  • Log GPS Information to MicorSD Card with Visuino almost 2 years ago

    thanks sorry to bother you as i know you are busy

  • Log GPS Information to MicorSD Card with Visuino almost 2 years ago

    ,01,02,PROTVER 14.00*1E
    $GPTXT,01,01,02,ANTSUPERV=AC SD PDoS S,9,.
    20231342,P4,$GPTXT,01,01,0N$GPRM,1TP0
    ,9100S,3
    4253P,$GPTXT,01,01,02,ANTSTATUS$GPRM1TP0
    ,9,26V,2
    4253PV$GPRMC,184316.00,V,,,,,,,140817,,,F*0,21
    330,,,,8,3L
    $GPRMC,184317.00,V,,,,,,1,89,2,,4,053624
    ,$GPRMC,184318.00,V,,,,,,,1$G0G.P18$0,
    60
    ,,$GPRMC,184319.00,A,5127.0
    9P74,G,0P13021,
    1204*2E
    $GPRMC,184320.00,A,5127.0,V2A2,5A2.,1,8,,,S1351
    N3$GPRMC,184321.00,A,5127.0,2
    3G72,P6.,50*013V2,53$,2$GPRMC,184322.00,A,5127.01,M*004
    01,24G9,G06$268$GPRMC,184323.00,A,5113V9354G,41322353624
    00$GPRMC,184324.00,A,510A0$01M0,$00
    24,,0,$GPRMC,184325.00,A,5127.0N2$NG0,,A9,S,13337G26
    1L5,$GPRMC,184326.00,A,5127.,2G,G6E4,,1V1,1,,,S,,53$,2$GPRMC,184327.00,A,5127.08,,20577,,
    2,2,035,72S,.80$GPRMC,184328.00,A,512,1G6,,3,P18$0,
    6,792,$GPRMC,184329.00,A,51297,G3,693V06G9,G36$F,0$GPRMC,184330.00,A,550,74N7M21332,G22,13,$,58,$GPRMC,184331.00,A,5127.5E
    .
    585$,.G130,,,G2,,4E38$GPRMC,184332.00,A,5127.004G70041,,011,S,4*18,G2786$GPRMC,184333.00,A,5127.51M
    7,.2103,6,,391792,$GPRMC,184334.00,A,5122,.G5,M0,$4,D,,71251,9
    $GPRMC,184335.00,A,52,5N,N32,,0P0,4,,8P4796$GPRMC,184336.00,A,5127.01T48,0,,1,11,S,4*982S,.55$GPRMC,184337.00,A,5127.0,P0A9,5A2.,80*013V27,,G07$GPRMC,184338.00,A,5127.N4G,G0,,,,.4,0*01,,,24
    00$GPRMC,184339.00,A,5185V395.G,41,4,0,4,2V*,9$GPRMC,184340.00,A,5173T,05.G,411,,,39,,3G.A$GPRMC,184341.00,A,510,A0C,5,
    0,9,,2,235,85S,.38$GPRMC,184342.00,A,5127.0,V.,91.,24,,2
    4,3326
    1L5,$GPRMC,184343.00,A,5127.9,77
    12.G02G16,101P6351
    N3$GPRMC,184344.00,A,5127E
    ,1,2
    6,42,,44,841P5A$GPRMC,184345.00,A,51,1,A,9,,79,,4,11,95,L86$GPRMC,184346.00,A,0
    ,P71,G,6P411101P623,

    this is some of what was in the log says its has errors in phasing

  • Log GPS Information to MicorSD Card with Visuino almost 2 years ago

    ok thanks ill take a look

  • Log GPS Information to MicorSD Card with Visuino almost 2 years ago

    hi how do i read the data i cant work out the bits to find location

  • Neopixel LED EyeBall almost 3 years ago

    hi Boian Motiv could you help with this please if you can i would like to get blinking be programmed to blink randomly with out bend sensor also if can get the eye moving in random thanks if you can help with this

  • Neopixel LED EyeBall about 3 years ago

    hi sorry for all question iam still learning coding where would this go please

  • Neopixel LED EyeBall about 3 years ago

    thanks HomeMadeGarbage works great could the blinking be programmed to blink randomly with out bend sensor thanks if you can help with this

  • Neopixel LED EyeBall about 3 years ago

    hi iam getting a error expected ';' before numeric constant and pointing me to line 386 please help as trying to get this to work thanks

  • Neopixel LED EyeBall about 3 years ago

    cool thanks ill take a look Boian Mitov also could anyone help me with putting something in the code to move eye and blink it at random any help would be great thanks

  • Neopixel LED EyeBall about 3 years ago

    that sounds great do you have a link to where a accelerometer/gyroscope was used

  • Neopixel LED EyeBall about 3 years ago

    hi could this be made as a pair and linked togeather

Add projectSign up / Login